createdAt,value
2023-02-25T00:01:29.076Z,6.00
2023-02-25T00:03:56.835Z,6.77
2023-02-25T00:06:24.504Z,7.40
2023-02-25T00:08:52.693Z,7.03
2023-02-25T00:11:20.804Z,7.17
2023-02-25T00:13:48.054Z,7.23
2023-02-25T00:16:15.615Z,7.87
2023-02-25T00:18:46.920Z,7.77
2023-02-25T00:21:16.131Z,8.40
2023-02-25T00:23:45.441Z,8.70
2023-02-25T00:26:13.373Z,8.70
2023-02-25T00:28:41.490Z,8.93
2023-02-25T00:31:13.949Z,8.40
2023-02-25T00:33:42.112Z,9.00
2023-02-25T00:36:11.770Z,9.13
2023-02-25T00:38:39.089Z,9.10
2023-02-25T00:41:11.862Z,9.43
2023-02-25T00:43:40.353Z,9.80
2023-02-25T00:46:07.142Z,10.53
2023-02-25T00:48:34.145Z,9.57
2023-02-25T00:51:13.368Z,9.87
2023-02-25T00:53:41.400Z,10.13
2023-02-25T00:56:10.353Z,10.67
2023-02-25T00:58:38.573Z,10.37
2023-02-25T01:01:14.724Z,11.87
2023-02-25T01:03:41.770Z,11.40
2023-02-25T01:06:09.475Z,10.60
2023-02-25T01:08:36.810Z,10.97
2023-02-25T01:11:21.508Z,9.80
2023-02-25T01:13:50.123Z,10.27
2023-02-25T01:16:21.798Z,9.73
2023-02-25T01:18:52.587Z,11.60
2023-02-25T01:21:30.652Z,11.50
2023-02-25T01:24:05.103Z,11.50
2023-02-25T01:26:34.602Z,10.87
2023-02-25T01:29:01.749Z,11.03
2023-02-25T01:31:31.478Z,11.97
2023-02-25T01:34:00.535Z,11.20
2023-02-25T01:36:28.386Z,12.40
2023-02-25T01:38:57.643Z,11.87
2023-02-25T01:41:25.657Z,11.07
2023-02-25T01:44:22.311Z,11.30
2023-02-25T01:46:51.767Z,10.30
2023-02-25T01:49:31.003Z,11.37
2023-02-25T01:52:03.762Z,11.67
2023-02-25T01:54:32.496Z,11.23
2023-02-25T01:56:59.588Z,11.33
2023-02-25T01:59:29.958Z,11.00
2023-02-25T02:01:57.037Z,11.70
2023-02-25T02:04:27.414Z,11.70
2023-02-25T02:06:55.469Z,10.57
2023-02-25T02:09:27.151Z,12.10
2023-02-25T02:11:56.746Z,11.73
2023-02-25T02:14:29.808Z,11.47
2023-02-25T02:17:23.183Z,12.40
2023-02-25T02:20:13.140Z,10.80
2023-02-25T02:22:49.242Z,12.30
2023-02-25T02:25:45.757Z,11.33
2023-02-25T02:28:32.576Z,11.57
2023-02-25T02:31:20.441Z,11.90
2023-02-25T02:34:20.590Z,11.60
2023-02-25T02:37:11.606Z,11.30
2023-02-25T02:39:52.547Z,13.93
2023-02-25T02:42:42.737Z,12.67
2023-02-25T02:45:21.441Z,12.27
2023-02-25T02:47:57.898Z,12.37
2023-02-25T02:50:33.888Z,13.17
2023-02-25T02:53:08.350Z,13.80
2023-02-25T02:55:48.073Z,13.13
2023-02-25T02:58:33.305Z,12.97
2023-02-25T03:01:27.259Z,12.10
2023-02-25T03:04:04.542Z,12.63
2023-02-25T03:06:45.174Z,11.97
2023-02-25T03:09:22.350Z,12.30
2023-02-25T03:11:50.260Z,13.27
2023-02-25T03:14:18.622Z,12.60
2023-02-25T03:17:13.798Z,13.03
2023-02-25T03:19:47.264Z,12.80
2023-02-25T03:22:27.857Z,12.30
2023-02-25T03:25:12.653Z,13.13
2023-02-25T03:27:43.346Z,12.03
2023-02-25T03:30:31.509Z,12.37
2023-02-25T03:33:08.706Z,14.30
2023-02-25T03:35:38.299Z,13.47
2023-02-25T03:38:10.073Z,13.57
2023-02-25T03:40:40.141Z,14.07
2023-02-25T03:43:14.470Z,14.07
2023-02-25T03:45:44.001Z,15.80
2023-02-25T03:48:13.916Z,14.40
2023-02-25T03:50:47.194Z,16.20
2023-02-25T03:53:14.362Z,15.30
2023-02-25T03:55:49.340Z,16.47
2023-02-25T03:58:16.202Z,16.63
2023-02-25T04:00:45.917Z,16.50
2023-02-25T04:03:12.804Z,17.70
2023-02-25T04:05:40.045Z,17.00
2023-02-25T04:08:15.305Z,17.13
2023-02-25T04:10:44.493Z,18.63
2023-02-25T04:13:14.534Z,20.40
2023-02-25T04:15:42.738Z,17.90
2023-02-25T04:18:09.567Z,18.67
2023-02-25T04:20:36.817Z,19.60
2023-02-25T04:23:03.641Z,19.00
2023-02-25T04:25:30.652Z,20.97
2023-02-25T04:27:57.391Z,19.40
2023-02-25T04:30:24.798Z,20.33
2023-02-25T04:32:51.845Z,20.47
2023-02-25T04:35:18.904Z,20.33
2023-02-25T04:37:45.582Z,20.37
2023-02-25T04:40:21.491Z,18.60
2023-02-25T04:42:49.029Z,19.10
2023-02-25T04:45:16.566Z,20.17
2023-02-25T04:47:44.200Z,20.83
2023-02-25T04:50:12.374Z,20.27
2023-02-25T04:52:39.650Z,20.77
2023-02-25T04:55:07.338Z,21.10
2023-02-25T04:57:34.216Z,20.87
2023-02-25T05:00:01.405Z,20.63
2023-02-25T05:02:28.427Z,20.20
2023-02-25T05:04:55.722Z,20.87
2023-02-25T05:07:23.163Z,22.70
2023-02-25T05:09:50.347Z,19.63
2023-02-25T05:12:17.106Z,20.93
2023-02-25T05:14:44.274Z,23.95
2023-02-25T05:17:11.989Z,20.43
2023-02-25T05:19:38.991Z,20.43
2023-02-25T05:22:05.799Z,21.53
2023-02-25T05:24:34.502Z,20.40
2023-02-25T05:27:08.423Z,20.87
2023-02-25T05:29:36.326Z,19.73
2023-02-25T05:32:03.611Z,20.47
2023-02-25T05:34:30.686Z,21.23
2023-02-25T05:36:57.484Z,20.77
2023-02-25T05:39:24.588Z,21.87
2023-02-25T05:41:51.729Z,21.90
2023-02-25T05:44:18.745Z,22.13
2023-02-25T05:46:45.887Z,20.97
2023-02-25T05:49:13.075Z,21.57
2023-02-25T05:51:39.861Z,21.07
2023-02-25T05:54:07.127Z,20.20
2023-02-25T05:56:33.867Z,21.47
2023-02-25T05:59:00.863Z,22.07
2023-02-25T06:01:29.421Z,22.27
2023-02-25T06:04:00.195Z,21.93
2023-02-25T06:06:29.332Z,22.00
2023-02-25T06:08:56.503Z,21.43
2023-02-25T06:11:29.520Z,21.77
2023-02-25T06:13:58.203Z,20.90
2023-02-25T06:16:30.256Z,20.67
2023-02-25T06:18:59.532Z,20.63
2023-02-25T06:21:26.677Z,19.77
2023-02-25T06:23:53.737Z,20.03
2023-02-25T06:26:20.789Z,20.43
2023-02-25T06:28:47.980Z,20.17
2023-02-25T06:31:17.313Z,22.07
2023-02-25T06:33:45.760Z,23.30
2023-02-25T06:36:13.507Z,23.50
2023-02-25T06:38:40.842Z,23.43
2023-02-25T06:41:10.170Z,22.77
2023-02-25T06:43:38.299Z,20.60
2023-02-25T06:46:10.343Z,19.90
2023-02-25T06:48:37.439Z,19.20
2023-02-25T06:51:09.099Z,20.00
2023-02-25T06:53:37.695Z,18.87
2023-02-25T06:56:05.137Z,20.30
2023-02-25T06:58:32.809Z,19.20
2023-02-25T07:00:59.769Z,20.17
2023-02-25T07:03:27.023Z,19.70
2023-02-25T07:05:53.763Z,18.77
2023-02-25T07:08:20.778Z,18.23
2023-02-25T07:10:47.508Z,17.10
2023-02-25T07:13:14.676Z,16.23
2023-02-25T07:15:41.403Z,17.03
2023-02-25T07:18:08.508Z,15.50
2023-02-25T07:20:35.444Z,14.80
2023-02-25T07:23:04.050Z,13.03
2023-02-25T07:25:30.881Z,13.10
2023-02-25T07:27:58.035Z,12.30
2023-02-25T07:30:24.895Z,13.37
2023-02-25T07:32:51.941Z,12.30
2023-02-25T07:35:18.671Z,12.43
2023-02-25T07:37:45.633Z,13.37
2023-02-25T07:40:12.990Z,11.63
2023-02-25T07:42:41.587Z,11.77
2023-02-25T07:45:10.835Z,11.27
2023-02-25T07:47:38.745Z,11.33
2023-02-25T07:50:07.327Z,10.37
2023-02-25T07:52:36.556Z,11.30
2023-02-25T07:55:06.984Z,11.00
2023-02-25T07:57:35.722Z,10.67
2023-02-25T08:00:04.937Z,10.97
2023-02-25T08:02:39.911Z,10.53
2023-02-25T08:05:07.787Z,10.13
2023-02-25T08:07:35.199Z,12.57
2023-02-25T08:10:02.187Z,12.17
2023-02-25T08:12:29.554Z,11.40
2023-02-25T08:14:57.462Z,10.23
2023-02-25T08:17:24.480Z,11.03
2023-02-25T08:19:52.106Z,11.90
2023-02-25T08:22:19.128Z,11.57
2023-02-25T08:24:45.928Z,12.33
2023-02-25T08:27:12.958Z,13.87
2023-02-25T08:29:39.979Z,13.87
2023-02-25T08:32:07.297Z,12.53
2023-02-25T08:34:34.976Z,13.30
2023-02-25T08:37:02.059Z,13.70
2023-02-25T08:39:29.314Z,13.63
2023-02-25T08:41:56.612Z,14.40
2023-02-25T08:44:23.393Z,14.40
2023-02-25T08:46:56.665Z,13.10
2023-02-25T08:49:23.549Z,10.67
2023-02-25T08:51:50.869Z,11.40
2023-02-25T08:54:17.772Z,10.50
2023-02-25T08:56:45.516Z,9.00
2023-02-25T08:59:15.082Z,8.97
2023-02-25T09:01:45.361Z,9.10
2023-02-25T09:04:13.579Z,8.03
2023-02-25T09:06:40.627Z,7.47
2023-02-25T09:09:07.508Z,6.83
2023-02-25T09:11:34.586Z,6.40
2023-02-25T09:14:01.462Z,7.47
2023-02-25T09:16:29.955Z,8.00
2023-02-25T09:18:56.870Z,8.10
2023-02-25T09:21:25.635Z,6.33
2023-02-25T09:23:52.821Z,5.20
2023-02-25T09:26:21.730Z,5.10
2023-02-25T09:28:49.517Z,3.97
2023-02-25T09:31:17.876Z,3.90
2023-02-25T09:33:45.126Z,3.80
2023-02-25T09:36:17.125Z,4.23
2023-02-25T09:38:45.847Z,3.93
2023-02-25T09:41:22.076Z,4.73
2023-02-25T09:43:52.565Z,3.53
2023-02-25T09:46:19.840Z,4.57
2023-02-25T09:48:55.152Z,6.97
2023-02-25T09:51:28.688Z,7.83
2023-02-25T09:54:22.478Z,7.53
2023-02-25T09:56:49.853Z,6.97
2023-02-25T09:59:22.078Z,7.90
2023-02-25T10:01:59.189Z,5.63
2023-02-25T10:04:33.997Z,6.37
2023-02-25T10:07:15.621Z,5.40
2023-02-25T10:09:57.099Z,4.10
2023-02-25T10:12:29.999Z,4.70
2023-02-25T10:15:11.814Z,4.60
2023-02-25T10:18:11.327Z,5.23
2023-02-25T10:20:43.199Z,5.10
2023-02-25T10:23:43.434Z,4.93
2023-02-25T10:26:36.937Z,4.77
2023-02-25T10:29:14.058Z,5.40
2023-02-25T10:31:45.748Z,5.70
2023-02-25T10:34:21.885Z,6.93
2023-02-25T10:36:55.499Z,7.97
2023-02-25T10:39:23.730Z,8.17
2023-02-25T10:41:51.235Z,7.80
2023-02-25T10:44:18.305Z,8.43
2023-02-25T10:46:57.852Z,9.23
2023-02-25T10:49:27.211Z,8.07
2023-02-25T10:51:57.290Z,8.80
2023-02-25T10:54:27.800Z,9.17
2023-02-25T10:56:55.326Z,9.13
2023-02-25T10:59:38.385Z,8.90
2023-02-25T11:02:21.227Z,5.77
2023-02-25T11:04:49.781Z,7.20
2023-02-25T11:07:35.542Z,6.70
2023-02-25T11:10:22.382Z,6.83
2023-02-25T11:12:54.548Z,6.57
2023-02-25T11:15:51.063Z,6.20
2023-02-25T11:18:31.999Z,6.43
2023-02-25T11:21:08.274Z,6.60
2023-02-25T11:23:47.122Z,6.53
2023-02-25T11:26:30.188Z,6.90
2023-02-25T11:29:02.062Z,6.37
2023-02-25T11:31:37.458Z,7.93
2023-02-25T11:34:13.088Z,7.83
2023-02-25T11:36:40.190Z,7.30
2023-02-25T11:39:23.008Z,6.63
2023-02-25T11:42:00.312Z,6.40
2023-02-25T11:44:44.794Z,6.80
2023-02-25T11:47:31.427Z,5.77
2023-02-25T11:50:00.888Z,6.90
2023-02-25T11:52:40.366Z,7.23
2023-02-25T11:55:16.006Z,6.23
2023-02-25T11:57:45.780Z,7.50
2023-02-25T12:00:25.676Z,7.03
2023-02-25T12:02:55.732Z,6.77
2023-02-25T12:05:45.172Z,6.83
2023-02-25T12:08:35.982Z,6.60
2023-02-25T12:11:53.221Z,5.60
2023-02-25T12:14:47.176Z,6.30
2023-02-25T12:17:32.217Z,6.90
2023-02-25T12:20:14.534Z,6.43
2023-02-25T12:23:05.690Z,6.97
2023-02-25T12:25:52.321Z,6.97
2023-02-25T12:28:45.573Z,6.77
2023-02-25T12:31:45.633Z,7.87
2023-02-25T12:34:36.868Z,7.10
2023-02-25T12:37:31.697Z,5.60
2023-02-25T12:40:19.940Z,6.07
2023-02-25T12:43:05.828Z,8.17
2023-02-25T12:46:10.291Z,8.70
2023-02-25T12:48:58.582Z,8.40
2023-02-25T12:51:37.349Z,9.23
2023-02-25T12:54:35.990Z,10.00
2023-02-25T12:57:48.805Z,6.87
2023-02-25T13:00:46.712Z,6.37
2023-02-25T13:03:21.934Z,8.60
2023-02-25T13:06:07.750Z,6.70
2023-02-25T13:08:43.654Z,6.97
2023-02-25T13:12:10.483Z,8.93
2023-02-25T13:14:44.959Z,10.43
2023-02-25T13:17:44.241Z,9.77
2023-02-25T13:20:38.604Z,9.80
2023-02-25T13:23:32.718Z,8.57
2023-02-25T13:26:25.387Z,7.60
2023-02-25T13:29:14.442Z,6.40
2023-02-25T13:31:51.811Z,5.17
2023-02-25T13:34:25.000Z,3.63
2023-02-25T13:37:04.610Z,2.90
2023-02-25T13:39:43.345Z,1.90
2023-02-25T13:42:44.538Z,1.87
2023-02-25T13:45:33.715Z,2.53
2023-02-25T13:48:25.173Z,2.30
2023-02-25T13:50:56.694Z,2.37
2023-02-25T13:53:53.564Z,1.90
2023-02-25T13:56:37.748Z,2.47
2023-02-25T13:59:23.418Z,2.70
2023-02-25T14:02:35.603Z,2.20
2023-02-25T14:05:43.487Z,2.53
2023-02-25T14:08:26.900Z,2.83
2023-02-25T14:11:31.069Z,2.30
2023-02-25T14:14:01.037Z,2.40
2023-02-25T14:16:40.150Z,2.40
2023-02-25T14:19:26.183Z,1.90
2023-02-25T14:22:11.676Z,1.40
2023-02-25T14:24:49.551Z,2.10
2023-02-25T14:27:31.195Z,1.73
2023-02-25T14:30:00.873Z,1.53
2023-02-25T14:32:45.074Z,1.77
2023-02-25T14:35:36.141Z,1.50
2023-02-25T14:38:15.936Z,1.50
2023-02-25T14:40:49.768Z,2.10
2023-02-25T14:43:31.448Z,1.90
2023-02-25T14:46:18.831Z,1.60
2023-02-25T14:49:00.637Z,2.50
2023-02-25T14:51:30.562Z,1.90
2023-02-25T14:54:38.534Z,1.33
2023-02-25T14:57:15.577Z,1.40
2023-02-25T15:00:05.018Z,1.30
2023-02-25T15:02:50.514Z,1.40
2023-02-25T15:05:25.998Z,1.43
2023-02-25T15:08:25.475Z,1.30
2023-02-25T15:11:13.916Z,1.60
2023-02-25T15:14:00.156Z,1.80
2023-02-25T15:17:06.330Z,1.80
2023-02-25T15:20:03.451Z,1.63
2023-02-25T15:22:31.112Z,1.90
2023-02-25T15:25:19.906Z,1.67
2023-02-25T15:27:48.562Z,1.70
2023-02-25T15:30:23.089Z,1.30
2023-02-25T15:32:59.349Z,1.67
2023-02-25T15:35:35.357Z,1.90
2023-02-25T15:38:39.431Z,1.60
2023-02-25T15:41:27.762Z,1.70
2023-02-25T15:43:59.156Z,1.60
2023-02-25T15:46:35.044Z,1.53
2023-02-25T15:49:17.975Z,1.83
2023-02-25T15:51:45.401Z,2.30
2023-02-25T15:54:32.158Z,2.57
2023-02-25T15:57:09.111Z,2.07
2023-02-25T15:59:57.548Z,1.70
2023-02-25T16:02:28.872Z,2.23
2023-02-25T16:04:58.604Z,1.90
2023-02-25T16:07:39.174Z,2.23
2023-02-25T16:10:36.154Z,2.50
2023-02-25T16:13:03.445Z,1.87
2023-02-25T16:15:43.517Z,1.67
2023-02-25T16:18:42.650Z,2.17
2023-02-25T16:21:22.647Z,1.80
2023-02-25T16:23:50.184Z,1.83
2023-02-25T16:26:19.602Z,1.57
2023-02-25T16:29:16.339Z,2.60
2023-02-25T16:31:58.636Z,1.90
2023-02-25T16:34:54.518Z,1.70
2023-02-25T16:37:41.249Z,1.57
2023-02-25T16:40:36.068Z,1.70
2023-02-25T16:43:03.287Z,1.80
2023-02-25T16:45:35.735Z,2.07
2023-02-25T16:48:17.204Z,1.97
2023-02-25T16:50:48.776Z,2.03
2023-02-25T16:53:20.627Z,2.20
2023-02-25T16:55:48.269Z,1.90
2023-02-25T16:58:15.080Z,1.80
2023-02-25T17:00:57.738Z,1.90
2023-02-25T17:03:33.032Z,2.13
2023-02-25T17:06:14.485Z,2.37
2023-02-25T17:08:46.786Z,2.30
2023-02-25T17:11:23.072Z,2.00
2023-02-25T17:13:53.214Z,2.17
2023-02-25T17:16:36.563Z,2.13
2023-02-25T17:19:07.585Z,2.20
2023-02-25T17:21:41.435Z,2.53
2023-02-25T17:24:17.219Z,2.67
2023-02-25T17:26:47.453Z,2.53
2023-02-25T17:29:16.781Z,2.27
2023-02-25T17:31:52.175Z,2.20
2023-02-25T17:34:35.574Z,1.90
2023-02-25T17:37:09.094Z,2.33
2023-02-25T17:39:36.151Z,2.03
2023-02-25T17:42:03.300Z,2.30
2023-02-25T17:44:36.314Z,2.53
2023-02-25T17:47:04.950Z,2.00
2023-02-25T17:49:34.585Z,2.53
2023-02-25T17:52:06.086Z,2.53
2023-02-25T17:54:35.750Z,2.40
2023-02-25T17:57:09.241Z,2.17
2023-02-25T17:59:39.357Z,3.03
2023-02-25T18:02:36.808Z,2.27
2023-02-25T18:05:12.662Z,2.13
2023-02-25T18:07:42.163Z,2.37
2023-02-25T18:10:27.157Z,2.23
2023-02-25T18:12:55.276Z,3.20
2023-02-25T18:15:30.995Z,2.73
2023-02-25T18:18:01.448Z,2.60
2023-02-25T18:20:28.765Z,2.50
2023-02-25T18:22:56.719Z,3.27
2023-02-25T18:25:40.953Z,2.60
2023-02-25T18:28:18.703Z,3.50
2023-02-25T18:30:45.695Z,2.90
2023-02-25T18:33:13.285Z,3.10
2023-02-25T18:35:43.429Z,2.40
2023-02-25T18:38:20.711Z,2.57
2023-02-25T18:40:49.879Z,3.17
2023-02-25T18:43:19.884Z,2.80
2023-02-25T18:45:47.385Z,2.77
2023-02-25T18:48:14.460Z,2.43
2023-02-25T18:50:44.391Z,2.60
2023-02-25T18:53:17.286Z,2.47
2023-02-25T18:55:44.105Z,2.63
2023-02-25T18:58:13.445Z,3.27
2023-02-25T19:00:40.887Z,2.80
2023-02-25T19:03:09.487Z,2.80
2023-02-25T19:05:38.001Z,2.83
2023-02-25T19:08:17.149Z,3.00
2023-02-25T19:10:44.906Z,2.97
2023-02-25T19:13:18.671Z,2.77
2023-02-25T19:15:45.575Z,3.10
2023-02-25T19:18:15.087Z,3.07
2023-02-25T19:20:43.959Z,2.90
2023-02-25T19:23:13.330Z,4.13
2023-02-25T19:25:41.390Z,3.33
2023-02-25T19:28:09.460Z,4.70
2023-02-25T19:30:39.975Z,4.27
2023-02-25T19:33:09.797Z,3.70
2023-02-25T19:35:39.763Z,4.03
2023-02-25T19:38:08.524Z,3.97
2023-02-25T19:40:36.758Z,4.60
2023-02-25T19:43:04.925Z,4.47
2023-02-25T19:45:32.443Z,4.17
2023-02-25T19:48:00.069Z,4.73
2023-02-25T19:50:27.803Z,5.13
2023-02-25T19:52:55.643Z,4.80
2023-02-25T19:55:22.968Z,4.70
2023-02-25T19:57:50.226Z,4.60
2023-02-25T20:00:22.880Z,4.30
2023-02-25T20:02:52.894Z,5.33
2023-02-25T20:05:21.707Z,5.03
2023-02-25T20:07:49.063Z,5.37
2023-02-25T20:10:16.259Z,6.37
2023-02-25T20:12:45.189Z,6.00
2023-02-25T20:15:13.415Z,6.60
2023-02-25T20:17:42.307Z,6.00
2023-02-25T20:20:11.069Z,5.13
2023-02-25T20:22:39.230Z,5.33
2023-02-25T20:25:07.984Z,4.40
2023-02-25T20:27:37.036Z,4.77
2023-02-25T20:30:06.590Z,3.87
2023-02-25T20:32:34.381Z,4.73
2023-02-25T20:35:02.073Z,5.33
2023-02-25T20:37:33.674Z,4.87
2023-02-25T20:40:00.784Z,5.67
2023-02-25T20:42:30.663Z,4.83
2023-02-25T20:44:58.925Z,4.80
2023-02-25T20:47:29.048Z,4.47
2023-02-25T20:49:56.939Z,4.43
2023-02-25T20:52:26.755Z,4.63
2023-02-25T20:54:54.407Z,4.33
2023-02-25T20:57:23.442Z,5.03
2023-02-25T20:59:51.067Z,5.53
2023-02-25T21:02:18.398Z,6.47
2023-02-25T21:04:45.608Z,5.33
2023-02-25T21:07:13.393Z,4.87
2023-02-25T21:09:40.283Z,5.07
2023-02-25T21:12:08.001Z,4.90
2023-02-25T21:14:35.309Z,4.80
2023-02-25T21:17:02.469Z,4.87
2023-02-25T21:19:29.338Z,5.17
2023-02-25T21:21:56.450Z,4.00
2023-02-25T21:24:23.217Z,3.67
2023-02-25T21:26:50.710Z,3.57
2023-02-25T21:29:17.586Z,3.43
2023-02-25T21:31:45.564Z,4.33
2023-02-25T21:34:14.131Z,3.20
2023-02-25T21:36:41.972Z,3.77
2023-02-25T21:39:09.467Z,4.00
2023-02-25T21:41:38.244Z,3.80
2023-02-25T21:44:05.388Z,3.63
2023-02-25T21:46:32.597Z,3.30
2023-02-25T21:48:59.614Z,4.03
2023-02-25T21:51:28.965Z,3.47
2023-02-25T21:53:58.328Z,4.50
2023-02-25T21:56:26.725Z,4.30
2023-02-25T21:58:58.998Z,4.07
2023-02-25T22:01:29.438Z,3.90
2023-02-25T22:03:56.413Z,3.93
2023-02-25T22:06:24.912Z,4.57
2023-02-25T22:08:52.845Z,3.67
2023-02-25T22:11:26.235Z,3.83
2023-02-25T22:13:53.995Z,3.80
2023-02-25T22:16:23.160Z,2.57
2023-02-25T22:18:51.005Z,2.10
2023-02-25T22:21:23.814Z,3.20
2023-02-25T22:23:52.921Z,2.03
2023-02-25T22:26:22.871Z,2.20
2023-02-25T22:28:53.927Z,2.67
2023-02-25T22:31:21.470Z,2.40
2023-02-25T22:33:48.996Z,2.27
2023-02-25T22:36:17.634Z,2.23
2023-02-25T22:38:47.494Z,2.73
2023-02-25T22:41:20.978Z,2.70
2023-02-25T22:43:48.573Z,2.50
2023-02-25T22:46:19.491Z,2.23
2023-02-25T22:48:47.943Z,2.17
2023-02-25T22:51:26.899Z,2.40
2023-02-25T22:53:54.434Z,2.17
2023-02-25T22:56:21.869Z,2.30
2023-02-25T22:58:48.930Z,2.00
2023-02-25T23:01:19.281Z,2.00
2023-02-25T23:03:47.293Z,1.60
2023-02-25T23:06:16.962Z,1.40
2023-02-25T23:08:44.271Z,1.60
2023-02-25T23:11:20.800Z,3.03
2023-02-25T23:13:51.204Z,1.70
2023-02-25T23:16:28.479Z,1.67
2023-02-25T23:18:58.649Z,1.57
2023-02-25T23:21:26.997Z,1.70
2023-02-25T23:23:56.292Z,1.60
2023-02-25T23:26:27.162Z,1.70
2023-02-25T23:28:59.560Z,1.50
2023-02-25T23:31:29.919Z,1.40
2023-02-25T23:33:58.855Z,1.60
2023-02-25T23:36:27.614Z,1.70
2023-02-25T23:39:01.087Z,1.57
2023-02-25T23:41:29.968Z,1.23
2023-02-25T23:44:00.512Z,1.50
2023-02-25T23:46:29.949Z,1.47
2023-02-25T23:48:59.264Z,1.67
2023-02-25T23:51:26.535Z,1.90
2023-02-25T23:53:55.164Z,1.40
2023-02-25T23:56:23.734Z,1.77
2023-02-25T23:58:53.735Z,1.60
